Lepanto, Arkansas
Current Conditions -  °F | °C
As of 10:53 AM on Tuesday 21 Oct 2014 (Local Time) from KJBR Reporting Station
Clear Clear  
Wind Chill: 69°   Ceiling: Unl
Heat Index: 69°   Visibility: 10mi
Dew Point: 49°   Wind: 0mph
Humidity: 49%   Direction: NA
Pressure: 30.12"   Gusts: NA
Location:  35.61°N, 90.33°W
Report Text: KJBR 211553Z AUTO 00000KT 10SM CLR 21/09 A3012 RMK AO2 SLP197 T02060094
Loading
Personal Weather Stations






























Interactive Weather Map
Tropical Storm Tracking
New forecast layout! Learn more

10-Day Weather Forecast

Advertisements
Track Severe Weather on mobile